sensor_id;sensor_type;location;lat;lon;timestamp;pressure;altitude;pressure_sealevel;temperature;humidity
12666;BME280;58531;59.050;17.416;2022-09-20T00:00:37;100549.00;;;9.87;89.57
12666;BME280;58531;59.050;17.416;2022-09-20T00:03:04;100561.88;;;9.89;89.90
12666;BME280;58531;59.050;17.416;2022-09-20T00:05:33;100552.84;;;9.86;89.72
12666;BME280;58531;59.050;17.416;2022-09-20T00:08:01;100559.97;;;9.89;89.52
12666;BME280;58531;59.050;17.416;2022-09-20T00:10:32;100551.97;;;9.89;89.44
12666;BME280;58531;59.050;17.416;2022-09-20T00:13:00;100557.63;;;9.91;89.31
12666;BME280;58531;59.050;17.416;2022-09-20T00:15:27;100557.63;;;9.91;89.36
12666;BME280;58531;59.050;17.416;2022-09-20T00:17:54;100559.97;;;9.89;89.65
12666;BME280;58531;59.050;17.416;2022-09-20T00:20:21;100562.06;;;9.94;88.82
12666;BME280;58531;59.050;17.416;2022-09-20T00:22:48;100566.81;;;9.90;89.55
12666;BME280;58531;59.050;17.416;2022-09-20T00:25:14;100562.66;;;9.89;89.28
12666;BME280;58531;59.050;17.416;2022-09-20T00:27:43;100564.75;;;9.94;89.26
12666;BME280;58531;59.050;17.416;2022-09-20T00:30:10;100563.56;;;9.95;88.73
12666;BME280;58531;59.050;17.416;2022-09-20T00:32:37;100572.88;;;9.91;89.90
12666;BME280;58531;59.050;17.416;2022-09-20T00:35:05;100570.53;;;9.93;89.36
12666;BME280;58531;59.050;17.416;2022-09-20T00:37:37;100572.75;;;9.94;89.39
12666;BME280;58531;59.050;17.416;2022-09-20T00:40:07;100581.38;;;9.98;89.22
12666;BME280;58531;59.050;17.416;2022-09-20T00:42:34;100586.72;;;9.98;89.22
12666;BME280;58531;59.050;17.416;2022-09-20T00:45:04;100578.72;;;9.98;89.30
12666;BME280;58531;59.050;17.416;2022-09-20T00:47:35;100586.97;;;9.91;89.91
12666;BME280;58531;59.050;17.416;2022-09-20T00:50:13;100578.03;;;9.85;90.42
12666;BME280;58531;59.050;17.416;2022-09-20T00:52:44;100590.38;;;9.92;89.64
12666;BME280;58531;59.050;17.416;2022-09-20T00:55:15;100585.16;;;9.88;89.86
12666;BME280;58531;59.050;17.416;2022-09-20T00:57:44;100600.19;;;9.95;89.62
12666;BME280;58531;59.050;17.416;2022-09-20T01:00:14;100594.09;;;9.94;89.32
12666;BME280;58531;59.050;17.416;2022-09-20T01:02:45;100594.09;;;9.94;89.65
12666;BME280;58531;59.050;17.416;2022-09-20T01:05:14;100593.47;;;9.90;89.70
12666;BME280;58531;59.050;17.416;2022-09-20T01:07:42;100595.06;;;9.88;90.30
12666;BME280;58531;59.050;17.416;2022-09-20T01:10:09;100591.34;;;9.85;90.31
12666;BME280;58531;59.050;17.416;2022-09-20T01:12:37;100594.88;;;9.82;90.28
12666;BME280;58531;59.050;17.416;2022-09-20T01:15:07;100594.56;;;9.80;90.54
12666;BME280;58531;59.050;17.416;2022-09-20T01:17:39;100590.19;;;9.86;89.81
12666;BME280;58531;59.050;17.416;2022-09-20T01:20:13;100603.28;;;9.93;88.78
12666;BME280;58531;59.050;17.416;2022-09-20T01:22:49;100603.38;;;9.90;89.17
12666;BME280;58531;59.050;17.416;2022-09-20T01:25:27;100600.53;;;9.84;89.26
12666;BME280;58531;59.050;17.416;2022-09-20T01:27:57;100601.06;;;9.79;89.50
12666;BME280;58531;59.050;17.416;2022-09-20T01:30:27;100597.84;;;9.72;90.13
12666;BME280;58531;59.050;17.416;2022-09-20T01:33:07;100604.16;;;9.65;90.28
12666;BME280;58531;59.050;17.416;2022-09-20T01:35:35;100604.69;;;9.60;90.67
12666;BME280;58531;59.050;17.416;2022-09-20T01:38:17;100603.75;;;9.54;90.84
12666;BME280;58531;59.050;17.416;2022-09-20T01:40:53;100598.63;;;9.47;91.08
12666;BME280;58531;59.050;17.416;2022-09-20T01:43:28;100600.03;;;9.39;91.63
12666;BME280;58531;59.050;17.416;2022-09-20T01:45:57;100602.78;;;9.36;91.79
12666;BME280;58531;59.050;17.416;2022-09-20T01:48:32;100611.97;;;9.35;92.00
12666;BME280;58531;59.050;17.416;2022-09-20T01:51:25;100604.59;;;9.27;92.41
12666;BME280;58531;59.050;17.416;2022-09-20T01:54:37;100613.25;;;9.31;92.27
12666;BME280;58531;59.050;17.416;2022-09-20T01:57:32;100611.00;;;9.41;91.76
12666;BME280;58531;59.050;17.416;2022-09-20T02:00:09;100616.75;;;9.52;90.70
12666;BME280;58531;59.050;17.416;2022-09-20T02:03:12;100623.56;;;9.53;90.70
12666;BME280;58531;59.050;17.416;2022-09-20T02:06:00;100626.25;;;9.53;91.16
12666;BME280;58531;59.050;17.416;2022-09-20T02:08:43;100626.25;;;9.53;90.72
12666;BME280;58531;59.050;17.416;2022-09-20T02:11:16;100627.75;;;9.54;90.53
12666;BME280;58531;59.050;17.416;2022-09-20T02:16:51;100626.78;;;9.48;89.99
12666;BME280;58531;59.050;17.416;2022-09-20T02:19:49;100632.53;;;9.47;90.47
12666;BME280;58531;59.050;17.416;2022-09-20T02:22:30;100634.44;;;9.46;90.35
12666;BME280;58531;59.050;17.416;2022-09-20T02:25:13;100644.50;;;9.42;90.59
12666;BME280;58531;59.050;17.416;2022-09-20T02:27:55;100643.41;;;9.52;89.87
12666;BME280;58531;59.050;17.416;2022-09-20T02:30:36;100644.06;;;9.56;89.24
12666;BME280;58531;59.050;17.416;2022-09-20T02:33:32;100651.84;;;9.51;89.86
12666;BME280;58531;59.050;17.416;2022-09-20T02:36:13;100641.59;;;9.37;90.47
12666;BME280;58531;59.050;17.416;2022-09-20T02:38:52;100654.38;;;9.30;90.82
12666;BME280;58531;59.050;17.416;2022-09-20T02:44:23;100645.84;;;9.22;91.30
12666;BME280;58531;59.050;17.416;2022-09-20T02:46:54;100653.09;;;9.22;91.26
12666;BME280;58531;59.050;17.416;2022-09-20T02:49:32;100658.41;;;9.22;91.65
12666;BME280;58531;59.050;17.416;2022-09-20T02:52:06;100656.09;;;9.24;91.76
12666;BME280;58531;59.050;17.416;2022-09-20T02:54:45;100662.19;;;9.37;91.00
12666;BME280;58531;59.050;17.416;2022-09-20T02:57:22;100666.03;;;9.36;90.98
12666;BME280;58531;59.050;17.416;2022-09-20T02:59:55;100661.94;;;9.43;90.36
12666;BME280;58531;59.050;17.416;2022-09-20T03:02:26;100673.25;;;9.47;90.50
12666;BME280;58531;59.050;17.416;2022-09-20T03:05:08;100667.41;;;9.52;89.79
12666;BME280;58531;59.050;17.416;2022-09-20T03:07:48;100672.97;;;9.58;89.65
12666;BME280;58531;59.050;17.416;2022-09-20T03:10:25;100673.69;;;9.58;90.10
12666;BME280;58531;59.050;17.416;2022-09-20T03:13:09;100671.34;;;9.60;89.67
12666;BME280;58531;59.050;17.416;2022-09-20T03:15:48;100678.63;;;9.60;89.98
12666;BME280;58531;59.050;17.416;2022-09-20T03:18:29;100681.94;;;9.64;89.29
12666;BME280;58531;59.050;17.416;2022-09-20T03:21:10;100690.03;;;9.60;89.17
12666;BME280;58531;59.050;17.416;2022-09-20T03:23:49;100689.81;;;9.55;89.60
12666;BME280;58531;59.050;17.416;2022-09-20T03:26:29;100693.00;;;9.50;89.70
12666;BME280;58531;59.050;17.416;2022-09-20T03:29:02;100688.41;;;9.50;89.69
12666;BME280;58531;59.050;17.416;2022-09-20T03:31:46;100691.28;;;9.43;90.02
12666;BME280;58531;59.050;17.416;2022-09-20T03:34:33;100691.81;;;9.38;89.89
12666;BME280;58531;59.050;17.416;2022-09-20T03:37:14;100689.56;;;9.37;89.53
12666;BME280;58531;59.050;17.416;2022-09-20T03:42:45;100696.50;;;9.35;90.05
12666;BME280;58531;59.050;17.416;2022-09-20T03:45:32;100699.38;;;9.40;89.31
12666;BME280;58531;59.050;17.416;2022-09-20T03:51:21;100711.53;;;9.29;90.31
12666;BME280;58531;59.050;17.416;2022-09-20T03:54:08;100714.19;;;9.29;90.48
12666;BME280;58531;59.050;17.416;2022-09-20T03:57:07;100720.50;;;9.35;91.07
12666;BME280;58531;59.050;17.416;2022-09-20T03:59:57;100723.16;;;9.35;90.50
12666;BME280;58531;59.050;17.416;2022-09-20T04:02:38;100723.16;;;9.35;90.98
12666;BME280;58531;59.050;17.416;2022-09-20T04:05:14;100726.25;;;9.45;90.11
12666;BME280;58531;59.050;17.416;2022-09-20T04:07:52;100727.66;;;9.50;90.07
12666;BME280;58531;59.050;17.416;2022-09-20T04:10:28;100731.06;;;9.50;89.90
12666;BME280;58531;59.050;17.416;2022-09-20T04:13:08;100732.22;;;9.49;89.91
12666;BME280;58531;59.050;17.416;2022-09-20T04:15:55;100739.81;;;9.51;89.68
12666;BME280;58531;59.050;17.416;2022-09-20T04:18:29;100744.50;;;9.47;89.84
12666;BME280;58531;59.050;17.416;2022-09-20T04:21:04;100746.31;;;9.50;89.91
12666;BME280;58531;59.050;17.416;2022-09-20T04:23:43;100753.81;;;9.55;90.23
12666;BME280;58531;59.050;17.416;2022-09-20T04:26:19;100756.78;;;9.57;89.88
12666;BME280;58531;59.050;17.416;2022-09-20T04:28:52;100758.28;;;9.58;90.12
12666;BME280;58531;59.050;17.416;2022-09-20T04:31:32;100759.78;;;9.59;90.31
12666;BME280;58531;59.050;17.416;2022-09-20T04:34:01;100769.38;;;9.56;90.68
12666;BME280;58531;59.050;17.416;2022-09-20T04:39:39;100777.69;;;9.58;91.11
12666;BME280;58531;59.050;17.416;2022-09-20T04:43:00;100783.00;;;9.58;90.75
12666;BME280;58531;59.050;17.416;2022-09-20T04:46:00;100790.38;;;9.54;92.17
12666;BME280;58531;59.050;17.416;2022-09-20T04:52:02;100791.22;;;9.51;91.89
12666;BME280;58531;59.050;17.416;2022-09-20T04:55:19;100794.63;;;9.52;91.53
12666;BME280;58531;59.050;17.416;2022-09-20T04:58:17;100803.38;;;9.52;91.25
12666;BME280;58531;59.050;17.416;2022-09-20T05:04:08;100812.13;;;9.53;90.40
12666;BME280;58531;59.050;17.416;2022-09-20T05:07:01;100814.03;;;9.52;90.62
12666;BME280;58531;59.050;17.416;2022-09-20T05:09:50;100810.19;;;9.53;90.59
12666;BME280;58531;59.050;17.416;2022-09-20T05:12:41;100821.63;;;9.54;91.18
12666;BME280;58531;59.050;17.416;2022-09-20T05:15:37;100837.69;;;9.50;92.35
12666;BME280;58531;59.050;17.416;2022-09-20T05:21:21;100833.53;;;9.49;92.05
12666;BME280;58531;59.050;17.416;2022-09-20T05:24:07;100847.69;;;9.46;92.21
12666;BME280;58531;59.050;17.416;2022-09-20T05:26:50;100843.22;;;9.43;93.17
12666;BME280;58531;59.050;17.416;2022-09-20T05:29:27;100851.53;;;9.45;92.73
12666;BME280;58531;59.050;17.416;2022-09-20T05:32:02;100856.13;;;9.45;93.65
12666;BME280;58531;59.050;17.416;2022-09-20T05:34:39;100858.81;;;9.45;93.87
12666;BME280;58531;59.050;17.416;2022-09-20T05:37:15;100856.78;;;9.49;92.71
12666;BME280;58531;59.050;17.416;2022-09-20T05:39:52;100861.19;;;9.55;92.76
12666;BME280;58531;59.050;17.416;2022-09-20T05:42:29;100871.66;;;9.62;91.97
12666;BME280;58531;59.050;17.416;2022-09-20T05:45:16;100867.81;;;9.63;92.10
12666;BME280;58531;59.050;17.416;2022-09-20T05:47:51;100871.38;;;9.73;92.57
12666;BME280;58531;59.050;17.416;2022-09-20T05:50:40;100869.69;;;9.79;91.49
12666;BME280;58531;59.050;17.416;2022-09-20T05:53:39;100875.91;;;9.88;90.38
12666;BME280;58531;59.050;17.416;2022-09-20T05:56:15;100880.09;;;9.89;90.17
12666;BME280;58531;59.050;17.416;2022-09-20T05:59:04;100889.91;;;9.92;90.73
12666;BME280;58531;59.050;17.416;2022-09-20T06:01:41;100890.69;;;10.05;89.86
12666;BME280;58531;59.050;17.416;2022-09-20T06:04:15;100894.78;;;10.10;88.30
12666;BME280;58531;59.050;17.416;2022-09-20T06:06:53;100896.81;;;10.18;88.11
12666;BME280;58531;59.050;17.416;2022-09-20T06:09:41;100903.66;;;10.19;87.61
12666;BME280;58531;59.050;17.416;2022-09-20T06:12:24;100896.09;;;10.30;86.84
12666;BME280;58531;59.050;17.416;2022-09-20T06:15:03;100903.47;;;10.51;85.61
12666;BME280;58531;59.050;17.416;2022-09-20T06:17:42;100904.00;;;10.58;85.21
12666;BME280;58531;59.050;17.416;2022-09-20T06:20:19;100908.81;;;10.63;83.22
12666;BME280;58531;59.050;17.416;2022-09-20T06:22:51;100916.28;;;10.56;83.88
12666;BME280;58531;59.050;17.416;2022-09-20T06:25:22;100917.34;;;10.46;84.75
12666;BME280;58531;59.050;17.416;2022-09-20T06:27:53;100925.06;;;10.57;83.95
12666;BME280;58531;59.050;17.416;2022-09-20T06:30:23;100924.63;;;10.58;83.31
12666;BME280;58531;59.050;17.416;2022-09-20T06:32:56;100923.13;;;10.57;83.38
12666;BME280;58531;59.050;17.416;2022-09-20T06:35:29;100928.47;;;10.57;83.59
12666;BME280;58531;59.050;17.416;2022-09-20T06:38:06;100930.41;;;10.57;83.91
12666;BME280;58531;59.050;17.416;2022-09-20T06:40:54;100934.56;;;10.57;83.41
12666;BME280;58531;59.050;17.416;2022-09-20T06:43:39;100937.97;;;10.58;83.81
12666;BME280;58531;59.050;17.416;2022-09-20T06:46:06;100942.78;;;10.63;83.26
12666;BME280;58531;59.050;17.416;2022-09-20T06:48:33;100944.50;;;10.57;84.13
12666;BME280;58531;59.050;17.416;2022-09-20T06:51:06;100949.09;;;10.69;nan
12666;BME280;58531;59.050;17.416;2022-09-20T06:53:35;100946.09;;;10.79;82.96
12666;BME280;58531;59.050;17.416;2022-09-20T06:56:06;100949.66;;;10.89;82.60
12666;BME280;58531;59.050;17.416;2022-09-20T06:58:33;100952.59;;;11.16;79.75
12666;BME280;58531;59.050;17.416;2022-09-20T07:01:00;100963.81;;;11.36;79.68
12666;BME280;58531;59.050;17.416;2022-09-20T07:03:27;100969.06;;;11.73;79.02
12666;BME280;58531;59.050;17.416;2022-09-20T07:05:56;100975.06;;;11.98;76.63
12666;BME280;58531;59.050;17.416;2022-09-20T07:08:24;100979.69;;;12.19;76.10
12666;BME280;58531;59.050;17.416;2022-09-20T07:10:51;100985.28;;;13.25;71.26
12666;BME280;58531;59.050;17.416;2022-09-20T07:13:19;100975.50;;;13.49;68.38
12666;BME280;58531;59.050;17.416;2022-09-20T07:15:45;100978.91;;;13.40;68.90
12666;BME280;58531;59.050;17.416;2022-09-20T07:18:12;100975.59;;;13.27;69.54
12666;BME280;58531;59.050;17.416;2022-09-20T07:20:39;100987.31;;;13.69;69.19
12666;BME280;58531;59.050;17.416;2022-09-20T07:23:06;100988.44;;;13.41;68.99
12666;BME280;58531;59.050;17.416;2022-09-20T07:25:35;100985.34;;;13.43;69.50
12666;BME280;58531;59.050;17.416;2022-09-20T07:28:02;100983.88;;;13.51;67.85
12666;BME280;58531;59.050;17.416;2022-09-20T07:30:29;100984.69;;;13.21;68.19
12666;BME280;58531;59.050;17.416;2022-09-20T07:32:55;100991.09;;;13.32;67.48
12666;BME280;58531;59.050;17.416;2022-09-20T07:35:22;100995.38;;;13.12;68.36
12666;BME280;58531;59.050;17.416;2022-09-20T07:37:55;100997.47;;;13.17;68.62
12666;BME280;58531;59.050;17.416;2022-09-20T07:40:22;100994.53;;;13.33;67.94
12666;BME280;58531;59.050;17.416;2022-09-20T07:42:51;100992.88;;;12.87;68.01
12666;BME280;58531;59.050;17.416;2022-09-20T07:45:18;100997.31;;;12.81;68.94
12666;BME280;58531;59.050;17.416;2022-09-20T07:47:45;101001.00;;;12.96;67.84
12666;BME280;58531;59.050;17.416;2022-09-20T07:50:11;101009.97;;;12.81;70.48
12666;BME280;58531;59.050;17.416;2022-09-20T07:52:38;101010.84;;;13.08;67.80
12666;BME280;58531;59.050;17.416;2022-09-20T07:55:06;101005.63;;;13.04;66.74
12666;BME280;58531;59.050;17.416;2022-09-20T07:57:34;101008.50;;;13.19;66.69
12666;BME280;58531;59.050;17.416;2022-09-20T08:00:06;101020.81;;;12.77;68.15
12666;BME280;58531;59.050;17.416;2022-09-20T08:02:33;101016.34;;;12.74;67.00
12666;BME280;58531;59.050;17.416;2022-09-20T08:05:00;101010.31;;;12.61;68.12
12666;BME280;58531;59.050;17.416;2022-09-20T08:07:28;101014.72;;;12.55;68.33
12666;BME280;58531;59.050;17.416;2022-09-20T08:09:55;101027.25;;;12.58;67.58
12666;BME280;58531;59.050;17.416;2022-09-20T08:12:21;101021.38;;;12.72;65.79
12666;BME280;58531;59.050;17.416;2022-09-20T08:14:48;101022.47;;;12.84;66.77
12666;BME280;58531;59.050;17.416;2022-09-20T08:17:17;101024.06;;;12.94;65.14
12666;BME280;58531;59.050;17.416;2022-09-20T08:19:43;101009.22;;;13.10;64.58
12666;BME280;58531;59.050;17.416;2022-09-20T08:22:10;101019.72;;;13.35;63.82
12666;BME280;58531;59.050;17.416;2022-09-20T08:24:37;101015.13;;;13.36;63.67
12666;BME280;58531;59.050;17.416;2022-09-20T08:27:04;101026.13;;;13.29;63.50
12666;BME280;58531;59.050;17.416;2022-09-20T08:29:31;101022.88;;;12.95;64.95
12666;BME280;58531;59.050;17.416;2022-09-20T08:31:58;101027.19;;;12.71;64.21
12666;BME280;58531;59.050;17.416;2022-09-20T08:34:28;101035.81;;;12.23;65.77
12666;BME280;58531;59.050;17.416;2022-09-20T08:36:55;101037.25;;;12.02;65.51
12666;BME280;58531;59.050;17.416;2022-09-20T08:39:22;101038.50;;;12.23;66.27
12666;BME280;58531;59.050;17.416;2022-09-20T08:41:52;101049.53;;;12.46;65.46
12666;BME280;58531;59.050;17.416;2022-09-20T08:44:24;101042.69;;;12.76;63.12
12666;BME280;58531;59.050;17.416;2022-09-20T08:47:01;101051.16;;;13.26;61.96
12666;BME280;58531;59.050;17.416;2022-09-20T08:49:32;101039.56;;;13.38;61.60
12666;BME280;58531;59.050;17.416;2022-09-20T08:51:59;101056.06;;;13.85;60.75
12666;BME280;58531;59.050;17.416;2022-09-20T08:54:30;101060.72;;;13.36;60.54
12666;BME280;58531;59.050;17.416;2022-09-20T08:57:00;101060.97;;;13.20;60.80
12666;BME280;58531;59.050;17.416;2022-09-20T08:59:30;101073.84;;;13.03;61.24
12666;BME280;58531;59.050;17.416;2022-09-20T09:01:57;101066.53;;;12.74;62.54
12666;BME280;58531;59.050;17.416;2022-09-20T09:04:33;101073.25;;;12.35;63.64
12666;BME280;58531;59.050;17.416;2022-09-20T09:07:00;101076.22;;;12.16;65.06
12666;BME280;58531;59.050;17.416;2022-09-20T09:09:28;101079.78;;;12.34;65.65
12666;BME280;58531;59.050;17.416;2022-09-20T09:11:56;101070.38;;;12.73;64.07
12666;BME280;58531;59.050;17.416;2022-09-20T09:14:25;101080.97;;;12.98;63.40
12666;BME280;58531;59.050;17.416;2022-09-20T09:17:11;101069.66;;;13.33;61.58
12666;BME280;58531;59.050;17.416;2022-09-20T09:19:45;101069.03;;;13.68;60.31
12666;BME280;58531;59.050;17.416;2022-09-20T09:22:17;101076.81;;;14.02;58.95
12666;BME280;58531;59.050;17.416;2022-09-20T09:24:47;101084.00;;;13.39;60.12
12666;BME280;58531;59.050;17.416;2022-09-20T09:27:31;101090.53;;;13.38;61.14
12666;BME280;58531;59.050;17.416;2022-09-20T09:29:59;101089.34;;;13.39;61.44
12666;BME280;58531;59.050;17.416;2022-09-20T09:32:28;101090.59;;;13.47;61.34
12666;BME280;58531;59.050;17.416;2022-09-20T09:35:21;101093.31;;;13.65;59.86
12666;BME280;58531;59.050;17.416;2022-09-20T09:37:52;101093.16;;;13.20;59.21
12666;BME280;58531;59.050;17.416;2022-09-20T09:40:20;101090.41;;;13.11;60.39
12666;BME280;58531;59.050;17.416;2022-09-20T09:42:48;101099.22;;;13.42;60.06
12666;BME280;58531;59.050;17.416;2022-09-20T09:45:27;101090.00;;;13.61;59.46
12666;BME280;58531;59.050;17.416;2022-09-20T09:47:56;101083.66;;;13.85;59.12
12666;BME280;58531;59.050;17.416;2022-09-20T09:50:27;101092.78;;;13.88;58.11
12666;BME280;58531;59.050;17.416;2022-09-20T09:53:07;101097.13;;;13.46;57.00
12666;BME280;58531;59.050;17.416;2022-09-20T09:55:54;101106.03;;;13.73;57.67
12666;BME280;58531;59.050;17.416;2022-09-20T09:58:33;101097.41;;;14.05;54.33
12666;BME280;58531;59.050;17.416;2022-09-20T10:01:05;101102.63;;;13.91;55.05
12666;BME280;58531;59.050;17.416;2022-09-20T10:03:47;101119.91;;;13.81;56.67
12666;BME280;58531;59.050;17.416;2022-09-20T10:06:22;101113.91;;;13.77;55.37
12666;BME280;58531;59.050;17.416;2022-09-20T10:09:05;101110.38;;;13.89;57.34
12666;BME280;58531;59.050;17.416;2022-09-20T10:11:42;101122.88;;;13.83;56.14
12666;BME280;58531;59.050;17.416;2022-09-20T10:14:22;101124.94;;;13.70;58.13
12666;BME280;58531;59.050;17.416;2022-09-20T10:17:18;101121.56;;;13.39;57.79
12666;BME280;58531;59.050;17.416;2022-09-20T10:20:02;101127.28;;;13.19;60.20
12666;BME280;58531;59.050;17.416;2022-09-20T10:22:39;101135.06;;;13.05;58.86
12666;BME280;58531;59.050;17.416;2022-09-20T10:25:21;101139.22;;;12.97;57.93
12666;BME280;58531;59.050;17.416;2022-09-20T10:28:05;101135.06;;;12.62;59.98
12666;BME280;58531;59.050;17.416;2022-09-20T10:30:41;101139.31;;;12.72;59.90
12666;BME280;58531;59.050;17.416;2022-09-20T10:33:19;101143.66;;;12.79;60.33
12666;BME280;58531;59.050;17.416;2022-09-20T10:36:00;101139.81;;;12.80;59.84
12666;BME280;58531;59.050;17.416;2022-09-20T10:38:35;101140.72;;;12.98;59.38
12666;BME280;58531;59.050;17.416;2022-09-20T10:41:13;101148.66;;;13.32;60.02
12666;BME280;58531;59.050;17.416;2022-09-20T10:44:09;101143.41;;;13.68;59.33
12666;BME280;58531;59.050;17.416;2022-09-20T10:46:48;101145.59;;;13.91;59.10
12666;BME280;58531;59.050;17.416;2022-09-20T10:49:24;101151.53;;;13.86;59.32
12666;BME280;58531;59.050;17.416;2022-09-20T10:52:01;101153.38;;;13.98;58.01
12666;BME280;58531;59.050;17.416;2022-09-20T10:54:43;101158.97;;;13.82;58.58
12666;BME280;58531;59.050;17.416;2022-09-20T10:57:40;101160.97;;;13.60;58.20
12666;BME280;58531;59.050;17.416;2022-09-20T11:00:18;101155.16;;;13.22;59.10
12666;BME280;58531;59.050;17.416;2022-09-20T11:02:54;101159.56;;;13.16;60.90
12666;BME280;58531;59.050;17.416;2022-09-20T11:05:34;101170.47;;;12.91;59.64
12666;BME280;58531;59.050;17.416;2022-09-20T11:08:09;101181.09;;;12.82;60.97
12666;BME280;58531;59.050;17.416;2022-09-20T11:10:43;101178.81;;;12.93;60.21
12666;BME280;58531;59.050;17.416;2022-09-20T11:13:18;101182.78;;;13.10;59.17
12666;BME280;58531;59.050;17.416;2022-09-20T11:15:52;101179.38;;;13.09;58.99
12666;BME280;58531;59.050;17.416;2022-09-20T11:18:29;101182.16;;;13.06;61.09
12666;BME280;58531;59.050;17.416;2022-09-20T11:21:02;101192.44;;;13.29;59.51
12666;BME280;58531;59.050;17.416;2022-09-20T11:23:39;101192.56;;;13.47;59.88
12666;BME280;58531;59.050;17.416;2022-09-20T11:26:15;101198.19;;;13.40;58.43
12666;BME280;58531;59.050;17.416;2022-09-20T11:28:46;101190.81;;;13.10;58.37
12666;BME280;58531;59.050;17.416;2022-09-20T11:31:19;101194.06;;;13.05;59.66
12666;BME280;58531;59.050;17.416;2022-09-20T11:33:52;101195.31;;;12.92;61.58
12666;BME280;58531;59.050;17.416;2022-09-20T11:36:24;101200.69;;;12.92;61.28
12666;BME280;58531;59.050;17.416;2022-09-20T11:38:57;101204.44;;;12.94;61.20
12666;BME280;58531;59.050;17.416;2022-09-20T11:41:28;101200.69;;;13.13;60.55
12666;BME280;58531;59.050;17.416;2022-09-20T11:44:00;101203.91;;;13.51;59.97
12666;BME280;58531;59.050;17.416;2022-09-20T11:46:37;101209.38;;;13.47;58.92
12666;BME280;58531;59.050;17.416;2022-09-20T11:49:11;101208.84;;;13.31;57.02
12666;BME280;58531;59.050;17.416;2022-09-20T11:52:03;101208.75;;;12.79;59.33
12666;BME280;58531;59.050;17.416;2022-09-20T11:57:39;101220.97;;;12.46;62.78
12666;BME280;58531;59.050;17.416;2022-09-20T12:00:07;101223.97;;;12.36;63.31
12666;BME280;58531;59.050;17.416;2022-09-20T12:02:39;101231.06;;;12.42;63.29
12666;BME280;58531;59.050;17.416;2022-09-20T12:05:23;101236.03;;;12.65;63.15
12666;BME280;58531;59.050;17.416;2022-09-20T12:07:52;101234.94;;;12.75;62.95
12666;BME280;58531;59.050;17.416;2022-09-20T12:10:22;101230.03;;;12.61;62.50
12666;BME280;58531;59.050;17.416;2022-09-20T12:12:56;101230.34;;;12.63;61.98
12666;BME280;58531;59.050;17.416;2022-09-20T12:15:26;101235.06;;;12.72;61.92
12666;BME280;58531;59.050;17.416;2022-09-20T12:21:08;101233.06;;;12.85;62.83
12666;BME280;58531;59.050;17.416;2022-09-20T12:24:00;101238.66;;;12.78;62.07
12666;BME280;58531;59.050;17.416;2022-09-20T12:26:41;101247.78;;;12.80;62.51
12666;BME280;58531;59.050;17.416;2022-09-20T12:32:44;101255.72;;;12.71;61.83
12666;BME280;58531;59.050;17.416;2022-09-20T12:38:31;101248.53;;;12.34;62.31
12666;BME280;58531;59.050;17.416;2022-09-20T12:41:05;101260.00;;;12.10;64.75
12666;BME280;58531;59.050;17.416;2022-09-20T12:43:35;101260.31;;;11.99;63.79
12666;BME280;58531;59.050;17.416;2022-09-20T12:46:03;101262.69;;;11.97;64.49
12666;BME280;58531;59.050;17.416;2022-09-20T12:48:34;101263.75;;;12.12;65.50
12666;BME280;58531;59.050;17.416;2022-09-20T12:51:05;101268.47;;;12.21;63.68
12666;BME280;58531;59.050;17.416;2022-09-20T12:54:01;101278.53;;;12.29;64.08
12666;BME280;58531;59.050;17.416;2022-09-20T12:56:34;101278.84;;;12.06;64.08
12666;BME280;58531;59.050;17.416;2022-09-20T12:59:01;101279.50;;;12.10;65.21
12666;BME280;58531;59.050;17.416;2022-09-20T13:01:37;101282.38;;;12.03;65.27
12666;BME280;58531;59.050;17.416;2022-09-20T13:07:54;101294.25;;;11.77;66.69
12666;BME280;58531;59.050;17.416;2022-09-20T13:10:35;101300.97;;;11.70;67.24
12666;BME280;58531;59.050;17.416;2022-09-20T13:15:57;101305.38;;;11.48;68.42
12666;BME280;58531;59.050;17.416;2022-09-20T13:18:26;101307.19;;;11.51;68.98
12666;BME280;58531;59.050;17.416;2022-09-20T13:20:55;101307.53;;;11.53;68.94
12666;BME280;58531;59.050;17.416;2022-09-20T13:23:27;101308.13;;;11.60;69.55
12666;BME280;58531;59.050;17.416;2022-09-20T13:25:56;101312.22;;;11.77;67.44
12666;BME280;58531;59.050;17.416;2022-09-20T13:28:30;101313.44;;;11.88;68.64
12666;BME280;58531;59.050;17.416;2022-09-20T13:31:31;101314.31;;;12.10;66.30
12666;BME280;58531;59.050;17.416;2022-09-20T13:34:18;101317.00;;;12.23;67.24
12666;BME280;58531;59.050;17.416;2022-09-20T13:36:47;101323.41;;;12.50;65.80
12666;BME280;58531;59.050;17.416;2022-09-20T13:39:32;101324.97;;;12.85;65.82
12666;BME280;58531;59.050;17.416;2022-09-20T13:42:04;101320.88;;;13.05;64.58
12666;BME280;58531;59.050;17.416;2022-09-20T13:44:33;101324.19;;;13.09;63.86
12666;BME280;58531;59.050;17.416;2022-09-20T13:47:19;101324.91;;;13.10;62.81
12666;BME280;58531;59.050;17.416;2022-09-20T13:49:46;101323.66;;;13.02;62.63
12666;BME280;58531;59.050;17.416;2022-09-20T13:52:21;101328.84;;;13.18;62.29
12666;BME280;58531;59.050;17.416;2022-09-20T13:54:50;101328.81;;;13.30;61.26
12666;BME280;58531;59.050;17.416;2022-09-20T13:57:20;101332.13;;;13.34;61.58
12666;BME280;58531;59.050;17.416;2022-09-20T13:59:48;101326.31;;;13.14;60.39
12666;BME280;58531;59.050;17.416;2022-09-20T14:02:21;101329.09;;;13.11;62.50
12666;BME280;58531;59.050;17.416;2022-09-20T14:04:50;101333.50;;;13.17;60.86
12666;BME280;58531;59.050;17.416;2022-09-20T14:07:19;101325.03;;;13.06;61.35
12666;BME280;58531;59.050;17.416;2022-09-20T14:09:51;101334.81;;;12.88;60.57